createdAt,value
2022-08-22T00:02:31.024Z,2.50
2022-08-22T00:03:08.057Z,2.00
2022-08-22T00:07:55.677Z,2.67
2022-08-22T00:13:04.330Z,1.92
2022-08-22T00:18:13.688Z,1.93
2022-08-22T00:23:18.315Z,2.60
2022-08-22T00:28:28.816Z,2.30
2022-08-22T00:33:45.331Z,2.58
2022-08-22T00:38:56.479Z,2.20
2022-08-22T00:44:27.536Z,2.60
2022-08-22T00:50:02.758Z,2.20
2022-08-22T00:55:13.664Z,2.20
2022-08-22T01:00:25.234Z,3.08
2022-08-22T01:06:02.889Z,2.28
2022-08-22T01:11:29.168Z,2.72
2022-08-22T01:16:48.939Z,2.25
2022-08-22T01:22:09.768Z,2.50
2022-08-22T01:27:29.187Z,2.97
2022-08-22T01:33:05.541Z,2.40
2022-08-22T01:38:34.436Z,2.00
2022-08-22T01:43:58.640Z,2.20
2022-08-22T01:49:21.463Z,2.00
2022-08-22T01:54:51.906Z,2.58
2022-08-22T01:59:57.987Z,2.17
2022-08-22T02:05:18.538Z,2.70
2022-08-22T02:10:41.866Z,2.00
2022-08-22T02:15:50.311Z,2.50
2022-08-22T02:21:16.343Z,2.13
2022-08-22T02:26:26.653Z,2.50
2022-08-22T02:31:44.324Z,2.60
2022-08-22T02:37:03.348Z,2.42
2022-08-22T02:42:32.855Z,2.37
2022-08-22T02:48:01.064Z,3.03
2022-08-22T02:53:22.949Z,2.33
2022-08-22T02:58:29.248Z,2.42
2022-08-22T03:03:39.802Z,2.47
2022-08-22T03:09:14.167Z,2.05
2022-08-22T03:14:18.334Z,2.75
2022-08-22T03:19:28.052Z,2.03
2022-08-22T03:29:36.111Z,2.53
2022-08-22T03:34:53.148Z,2.80
2022-08-22T03:40:03.759Z,2.47
2022-08-22T03:45:29.668Z,2.50
2022-08-22T03:50:55.091Z,2.40
2022-08-22T03:56:33.854Z,2.42
2022-08-22T04:01:53.479Z,2.60
2022-08-22T04:07:05.427Z,2.70
2022-08-22T04:12:23.047Z,2.55
2022-08-22T04:17:37.154Z,3.33
2022-08-22T04:23:16.244Z,2.85
2022-08-22T04:28:41.336Z,4.10
2022-08-22T04:33:42.780Z,2.50
2022-08-22T04:38:47.665Z,2.42
2022-08-22T04:43:50.844Z,3.30
2022-08-22T04:49:12.243Z,2.85
2022-08-22T04:54:32.426Z,2.90
2022-08-22T04:59:34.977Z,3.15
2022-08-22T05:04:41.635Z,2.78
2022-08-22T05:09:49.067Z,3.28
2022-08-22T05:15:05.691Z,3.55
2022-08-22T05:20:17.304Z,3.03
2022-08-22T05:25:25.641Z,2.83
2022-08-22T05:30:31.243Z,3.55
2022-08-22T05:35:39.779Z,4.63
2022-08-22T05:40:42.961Z,3.38
2022-08-22T05:45:47.245Z,3.53
2022-08-22T05:50:58.407Z,3.20
2022-08-22T05:56:14.769Z,4.70
2022-08-22T06:01:44.142Z,5.68
2022-08-22T06:07:20.852Z,4.53
2022-08-22T06:12:44.322Z,5.13
2022-08-22T06:17:58.157Z,5.30
2022-08-22T06:23:02.476Z,4.00
2022-08-22T06:28:08.667Z,4.20
2022-08-22T06:33:15.962Z,4.03
2022-08-22T06:38:19.876Z,3.90
2022-08-22T06:43:23.612Z,4.00
2022-08-22T06:48:26.399Z,4.95
2022-08-22T06:53:47.799Z,4.22
2022-08-22T06:58:56.458Z,3.25
2022-08-22T07:04:03.043Z,2.72
2022-08-22T07:09:06.765Z,2.80
2022-08-22T07:14:14.193Z,2.30
2022-08-22T07:19:36.838Z,3.08
2022-08-22T07:24:46.453Z,3.58
2022-08-22T07:30:09.891Z,2.90
2022-08-22T07:35:23.354Z,3.03
2022-08-22T07:40:32.649Z,3.00
2022-08-22T07:51:13.504Z,3.53
2022-08-22T07:56:23.505Z,3.20
2022-08-22T08:01:26.200Z,2.65
2022-08-22T08:06:28.711Z,2.70
2022-08-22T08:11:35.820Z,2.40
2022-08-22T08:16:47.618Z,1.92
2022-08-22T08:21:53.466Z,2.35
2022-08-22T08:27:16.787Z,2.22
2022-08-22T08:32:18.644Z,2.20
2022-08-22T08:37:24.290Z,1.70
2022-08-22T08:43:03.199Z,1.88
2022-08-22T08:48:24.922Z,2.13
2022-08-22T08:53:45.195Z,2.00
2022-08-22T08:59:03.495Z,1.83
2022-08-22T09:04:35.947Z,2.00
2022-08-22T09:09:58.975Z,2.22
2022-08-22T09:15:11.837Z,2.22
2022-08-22T09:20:34.655Z,2.38
2022-08-22T09:26:02.162Z,1.95
2022-08-22T09:31:16.858Z,3.33
2022-08-22T09:37:07.797Z,1.92
2022-08-22T09:42:51.046Z,1.75
2022-08-22T09:48:09.583Z,2.08
2022-08-22T09:53:28.939Z,2.17
2022-08-22T09:58:40.675Z,1.65
2022-08-22T10:04:05.121Z,2.00
2022-08-22T10:09:26.413Z,2.10
2022-08-22T10:15:00.032Z,2.00
2022-08-22T10:20:15.223Z,1.90
2022-08-22T10:25:35.962Z,1.90
2022-08-22T10:30:55.893Z,3.08
2022-08-22T10:36:11.928Z,1.77
2022-08-22T10:41:38.548Z,2.42
2022-08-22T10:46:53.613Z,2.17
2022-08-22T10:52:15.623Z,2.38
2022-08-22T10:57:55.580Z,2.47
2022-08-22T11:03:02.834Z,1.88
2022-08-22T11:08:11.452Z,2.20
2022-08-22T11:19:02.050Z,2.80
2022-08-22T11:24:35.316Z,1.90
2022-08-22T11:29:49.305Z,2.13
2022-08-22T11:35:04.334Z,2.20
2022-08-22T11:40:23.223Z,2.45
2022-08-22T11:45:31.380Z,2.33
2022-08-22T11:50:43.154Z,2.40
2022-08-22T11:56:13.256Z,2.17
2022-08-22T12:01:19.570Z,2.30
2022-08-22T12:06:57.108Z,2.28
2022-08-22T12:12:12.620Z,2.40
2022-08-22T12:17:55.669Z,2.17
2022-08-22T12:23:43.699Z,2.50
2022-08-22T12:28:52.605Z,2.30
2022-08-22T12:34:07.402Z,2.40
2022-08-22T12:39:27.330Z,2.20
2022-08-22T12:44:50.621Z,2.25
2022-08-22T12:50:18.600Z,2.42
2022-08-22T12:55:48.662Z,1.90
2022-08-22T13:00:51.664Z,2.25
2022-08-22T13:05:57.109Z,2.60
2022-08-22T13:11:22.313Z,2.10
2022-08-22T13:16:34.516Z,2.00
2022-08-22T13:21:43.656Z,2.33
2022-08-22T13:26:54.211Z,2.03
2022-08-22T13:32:01.433Z,2.00
2022-08-22T13:37:05.305Z,2.00
2022-08-22T13:42:30.051Z,2.00
2022-08-22T13:47:35.814Z,1.90
2022-08-22T13:52:52.485Z,1.70
2022-08-22T13:58:22.990Z,2.00
2022-08-22T14:03:40.083Z,2.15
2022-08-22T14:08:45.789Z,1.50
2022-08-22T14:13:59.174Z,2.38
2022-08-22T14:19:11.289Z,2.28
2022-08-22T14:24:26.935Z,2.20
2022-08-22T14:29:38.619Z,2.20
2022-08-22T14:34:45.477Z,2.20
2022-08-22T14:39:56.902Z,2.25
2022-08-22T14:45:16.853Z,2.10
2022-08-22T14:50:53.141Z,1.92
2022-08-22T14:56:29.258Z,2.20
2022-08-22T15:01:33.932Z,2.00
2022-08-22T15:06:50.856Z,2.28
2022-08-22T15:11:53.368Z,2.15
2022-08-22T15:17:01.412Z,1.60
2022-08-22T15:22:13.520Z,2.00
2022-08-22T15:27:20.349Z,2.00
2022-08-22T15:32:36.925Z,1.88
2022-08-22T15:38:04.124Z,1.92
2022-08-22T15:43:36.560Z,1.88
2022-08-22T15:48:39.407Z,1.92
2022-08-22T15:53:45.549Z,1.77
2022-08-22T15:59:14.064Z,2.25
2022-08-22T16:04:34.217Z,1.83
2022-08-22T16:09:40.649Z,2.17
2022-08-22T16:14:49.750Z,2.58
2022-08-22T16:20:10.023Z,2.20
2022-08-22T16:25:50.140Z,1.90
2022-08-22T16:30:52.389Z,2.20
2022-08-22T16:36:18.630Z,2.10
2022-08-22T16:41:34.237Z,2.53
2022-08-22T16:46:43.445Z,2.05
2022-08-22T16:52:20.595Z,2.65
2022-08-22T16:57:37.136Z,2.10
2022-08-22T17:02:44.466Z,2.15
2022-08-22T17:08:04.622Z,2.25
2022-08-22T17:13:08.852Z,2.00
2022-08-22T17:18:44.984Z,2.42
2022-08-22T17:24:08.279Z,2.20
2022-08-22T17:29:19.328Z,2.15
2022-08-22T17:34:43.663Z,1.70
2022-08-22T17:40:00.613Z,2.20
2022-08-22T17:45:30.153Z,2.10
2022-08-22T17:50:54.791Z,2.10
2022-08-22T17:55:59.545Z,2.28
2022-08-22T18:01:13.396Z,1.80
2022-08-22T18:06:26.565Z,2.10
2022-08-22T18:11:38.943Z,2.30
2022-08-22T18:16:41.930Z,1.92
2022-08-22T18:22:37.415Z,1.77
2022-08-22T18:27:47.611Z,2.25
2022-08-22T18:33:11.846Z,2.30
2022-08-22T18:38:34.575Z,2.00
2022-08-22T18:43:40.045Z,2.20
2022-08-22T18:49:05.410Z,2.20
2022-08-22T18:54:06.996Z,2.53
2022-08-22T18:59:28.093Z,2.53
2022-08-22T19:04:59.438Z,2.13
2022-08-22T19:10:32.180Z,2.13
2022-08-22T19:16:01.640Z,2.85
2022-08-22T19:21:44.958Z,1.98
2022-08-22T19:26:51.281Z,2.10
2022-08-22T19:31:58.914Z,2.33
2022-08-22T19:37:32.210Z,2.40
2022-08-22T19:42:38.095Z,2.60
2022-08-22T19:47:42.230Z,2.38
2022-08-22T19:52:43.693Z,2.40
2022-08-22T19:58:06.375Z,2.38
2022-08-22T20:03:18.378Z,2.30
2022-08-22T20:08:46.695Z,2.83
2022-08-22T20:13:49.655Z,3.05
2022-08-22T20:19:03.556Z,2.45
2022-08-22T20:24:19.721Z,2.30
2022-08-22T20:29:25.743Z,2.88
2022-08-22T20:34:32.143Z,2.20
2022-08-22T20:40:09.448Z,2.60
2022-08-22T20:45:31.332Z,2.95
2022-08-22T20:50:33.105Z,2.78
2022-08-22T20:55:34.859Z,2.70
2022-08-22T21:00:44.884Z,3.03
2022-08-22T21:05:46.567Z,2.72
2022-08-22T21:11:16.855Z,2.65
2022-08-22T21:16:33.277Z,3.08
2022-08-22T21:21:35.276Z,2.40
2022-08-22T21:26:39.183Z,2.40
2022-08-22T21:31:54.165Z,3.08
2022-08-22T21:37:23.575Z,3.38
2022-08-22T21:42:37.966Z,3.35
2022-08-22T21:47:42.500Z,3.20
2022-08-22T21:53:11.299Z,3.25
2022-08-22T21:58:22.026Z,2.65
2022-08-22T22:03:38.444Z,2.55
2022-08-22T22:08:40.161Z,2.67
2022-08-22T22:13:42.304Z,3.22
2022-08-22T22:18:43.853Z,3.33
2022-08-22T22:23:45.357Z,2.72
2022-08-22T22:28:49.032Z,3.22
2022-08-22T22:33:50.555Z,3.50
2022-08-22T22:38:53.350Z,3.40
2022-08-22T22:43:55.333Z,3.30
2022-08-22T22:48:57.901Z,3.70
2022-08-22T22:53:59.453Z,3.08
2022-08-22T22:59:13.543Z,3.22
2022-08-22T23:04:16.549Z,3.75
2022-08-22T23:09:18.061Z,3.42
2022-08-22T23:14:19.635Z,3.20
2022-08-22T23:19:21.252Z,3.20
2022-08-22T23:24:23.940Z,3.08
2022-08-22T23:29:26.322Z,3.10
2022-08-22T23:34:33.780Z,3.15
2022-08-22T23:39:38.016Z,2.97
2022-08-22T23:44:41.219Z,2.65
2022-08-22T23:49:43.812Z,2.67
2022-08-22T23:54:45.393Z,3.08
2022-08-22T23:59:57.338Z,2.78
